MDT,Max TemperatureF,Mean TemperatureF,Min TemperatureF,Max Dew PointF,MeanDew PointF,Min DewpointF,Max Humidity, Mean Humidity, Min Humidity, Max Sea Level PressureIn, Mean Sea Level PressureIn, Min Sea Level PressureIn, Max VisibilityMiles, Mean VisibilityMiles, Min VisibilityMiles, Max Wind SpeedMPH, Mean Wind SpeedMPH, Max Gust SpeedMPH,PrecipitationIn, CloudCover, Events, WindDirDegrees
2012-7-1,96,78,59,46,36,27,45,25,10,30.00,29.88,29.78,10,10,10,25,7,41,0.00,0,,226
2012-7-2,84,70,55,48,46,43,67,43,23,30.09,30.00,29.90,10,10,10,21,8,22,0.00,0,,44
2012-7-3,96,79,62,45,35,30,49,22,10,29.93,29.85,29.77,10,10,10,20,9,32,0.00,0,,228
2012-7-4,84,72,59,45,38,30,43,29,20,30.02,29.96,29.89,10,10,10,15,8,22,0.00,0,,5
2012-7-5,69,63,57,50,38,34,77,39,27,30.14,30.04,29.98,10,10,10,20,6,26,0.00,4,,9
2012-7-6,84,68,53,50,44,34,82,47,16,30.27,30.21,30.14,10,10,10,12,3,17,0.00,1,,44
2012-7-7,87,72,57,46,41,34,59,33,15,30.33,30.28,30.24,10,10,9,14,4,18,0.00,1,,338
2012-7-8,89,74,59,48,44,34,59,38,14,30.32,30.29,30.25,10,10,8,17,6,23,0.00,1,,231
2012-7-9,87,74,60,50,44,36,55,34,18,30.30,30.25,30.18,10,10,9,12,6,16,0.00,0,,342
2012-7-10,89,74,60,48,42,37,49,31,17,30.21,30.17,30.10,10,10,10,20,7,41,0.01,1,Thunderstorm,227
2012-7-11,86,72,59,50,44,36,55,38,17,30.23,30.15,30.10,10,10,10,21,5,34,0.01,0,Thunderstorm,196
2012-7-12,89,74,60,46,42,36,55,32,17,30.19,30.14,30.08,10,10,10,14,5,20,0.00,0,,359
2012-7-13,95,78,60,46,41,36,55,28,13,30.14,30.10,30.05,10,10,10,21,6,29,0.00,1,,241
2012-7-14,87,76,64,57,49,43,77,41,24,30.12,30.03,29.95,10,10,7,21,5,34,0.01,3,Thunderstorm,254
2012-7-15,87,74,62,59,47,34,83,42,18,29.99,29.94,29.89,10,10,9,17,8,25,0.00,3,,244
2012-7-16,84,72,60,57,49,45,77,47,25,30.05,30.00,29.93,10,10,10,18,7,31,0.02,4,,352
2012-7-17,84,72,60,55,48,39,77,47,20,30.06,30.01,29.96,10,10,10,24,7,28,0.00,2,Thunderstorm,164
2012-7-18,93,78,62,46,39,30,48,27,12,30.11,30.06,30.00,10,10,10,30,8,38,0.00,0,,227
2012-7-19,93,80,66,43,36,28,40,21,10,30.19,30.14,30.09,10,10,7,17,7,22,0.00,0,,279
2012-7-20,89,80,71,54,42,34,47,28,18,30.26,30.17,30.12,10,10,10,15,5,18,0.00,1,,150
2012-7-21,91,80,68,55,44,39,50,30,16,30.22,30.16,30.09,10,10,10,20,7,30,0.00,1,,219
2012-7-22,86,72,59,57,47,39,55,40,25,30.22,30.17,30.14,10,10,7,17,6,24,0.07,2,,245
2012-7-23,91,76,60,52,48,41,68,38,18,30.15,30.07,29.99,10,10,5,16,7,22,0.00,1,,205
2012-7-24,84,74,64,52,48,43,64,39,25,30.04,30.00,29.94,10,10,10,14,5,16,0.00,3,,27
2012-7-25,82,71,60,45,39,30,42,28,18,30.11,30.05,29.99,10,10,10,17,8,26,0.00,2,,6
2012-7-26,86,72,57,55,41,36,68,36,18,30.19,30.14,30.07,10,10,4,21,6,48,0.07,0,Thunderstorm,345
2012-7-27,84,70,57,55,47,43,82,46,23,30.21,30.10,30.04,10,10,10,24,9,45,0.03,1,Thunderstorm,324
2012-7-28,87,70,53,54,50,43,88,56,21,30.19,30.16,30.11,10,10,7,22,5,32,0.00,1,Thunderstorm,281
2012-7-29,87,74,60,52,44,37,72,37,19,30.20,30.17,30.12,10,10,7,23,6,28,0.00,1,Thunderstorm,224
2012-7-30,93,76,59,46,39,30,55,29,11,30.18,30.12,30.03,10,10,3,17,6,22,0.00,0,,170
2012-7-31,91,76,62,45,38,30,43,24,14,30.14,30.08,30.03,10,10,3,16,7,20,0.00,0,,356